PWSweather.com
Personal Weather Stations
Station Observations
KMAMEDFI2
Medfield, MA 02052

Medfield, MA 02052

Lat: 42.1900822, Lon: -71.3296889

Elevation: 138

Station Type: Rainwise WS MK-III

http://www.medfieldweather.com

High Low Average
Temperature 27.3°F-2.6°C 13.7°F-10.2°C 21.2°F-6.0°C
Dew Point 15.8°F-9.0°C -0.4°F-18.0°C 8.4°F-13.1°C
Winds 11.5 mph 18.5 kmh 1.2 mph 1.9 kmh 6.0 mph W9.7 kmh W
Wind Gusts 25.3 mph40.7 kmh 2.3 mph3.7 kmh 9.0 mph14.5 kmh
Humidity 73% 43% 58%
Pressure 30.28 in1025.4 mb 29.76 in1007.8 mb -
Precipitation 0.00 in0.0 mm - -
Hour Temp Dew Point Humidity Winds Wind Gusts Pressure Precip Precip Rate Daily Precip Total
12:00 AM 22.9°F-5.1°C 14.2°F-9.9°C 69% 4.6 mph WSW7.4 kmh WSW 8.1 mph13.0 kmh 29.75 in1007.5 mb - 0.00 in0.0 mm 0.00 in0.0 mm
12:10 AM 22.8°F-5.1°C 14.2°F-9.9°C 69% 3.5 mph SW5.6 kmh SW 8.1 mph13.0 kmh 29.75 in1007.5 mb - 0.00 in0.0 mm 0.00 in0.0 mm
12:20 AM 22.7°F-5.2°C 14.1°F-9.9°C 69% 8.1 mph W13.0 kmh W 9.2 mph14.8 kmh 29.75 in1007.5 mb - 0.00 in0.0 mm 0.00 in0.0 mm
12:30 AM 22.5°F-5.3°C 14.2°F-9.9°C 70% 4.6 mph W7.4 kmh W 5.8 mph9.3 kmh 29.75 in1007.5 mb - 0.00 in0.0 mm 0.00 in0.0 mm
12:40 AM 22.4°F-5.3°C 14.1°F-9.9°C 70% 5.8 mph WNW9.3 kmh WNW 8.1 mph13.0 kmh 29.75 in1007.5 mb - 0.00 in0.0 mm 0.00 in0.0 mm
12:50 AM 22.4°F-5.3°C 14.1°F-9.9°C 70% 4.6 mph W7.4 kmh W 9.2 mph14.8 kmh 29.75 in1007.5 mb - 0.00 in0.0 mm 0.00 in0.0 mm
01:00 AM 22.3°F-5.4°C 14.0°F-10.0°C 70% 3.5 mph W5.6 kmh W 3.5 mph5.6 kmh 29.76 in1007.8 mb - 0.00 in0.0 mm 0.00 in0.0 mm
01:10 AM 21.9°F-5.6°C 14.0°F-10.0°C 71% 5.8 mph WSW9.3 kmh WSW 9.2 mph14.8 kmh 29.76 in1007.8 mb - 0.00 in0.0 mm 0.00 in0.0 mm
01:20 AM 22.1°F-5.5°C 13.8°F-10.1°C 70% 4.6 mph W7.4 kmh W 6.9 mph11.1 kmh 29.76 in1007.8 mb - 0.00 in0.0 mm 0.00 in0.0 mm
01:30 AM 22.1°F-5.5°C 14.1°F-9.9°C 71% 4.6 mph WSW7.4 kmh WSW 3.5 mph5.6 kmh 29.76 in1007.8 mb - 0.00 in0.0 mm 0.00 in0.0 mm
01:40 AM 22.1°F-5.5°C 14.1°F-9.9°C 71% 6.9 mph NW11.1 kmh NW 9.2 mph14.8 kmh 29.77 in1008.1 mb - 0.00 in0.0 mm 0.00 in0.0 mm
01:50 AM 22.4°F-5.3°C 14.7°F-9.6°C 72% 3.5 mph NW5.6 kmh NW 6.9 mph11.1 kmh 29.77 in1008.1 mb - 0.00 in0.0 mm 0.00 in0.0 mm
02:00 AM 22.5°F-5.3°C 14.6°F-9.7°C 71% 4.6 mph WSW7.4 kmh WSW 8.1 mph13.0 kmh 29.77 in1008.1 mb - 0.00 in0.0 mm 0.00 in0.0 mm
02:10 AM 22.7°F-5.2°C 14.7°F-9.6°C 71% 4.6 mph W7.4 kmh W 5.8 mph9.3 kmh 29.77 in1008.1 mb - 0.00 in0.0 mm 0.00 in0.0 mm
02:20 AM 22.9°F-5.1°C 15.2°F-9.3°C 72% 5.8 mph WSW9.3 kmh WSW 5.8 mph9.3 kmh 29.78 in1008.5 mb - 0.00 in0.0 mm 0.00 in0.0 mm
02:30 AM 23.0°F-5.0°C 15.3°F-9.3°C 72% 3.5 mph W5.6 kmh W 3.5 mph5.6 kmh 29.78 in1008.5 mb - 0.00 in0.0 mm 0.00 in0.0 mm
02:40 AM 23.0°F-5.0°C 15.6°F-9.1°C 73% 3.5 mph WNW5.6 kmh WNW 5.8 mph9.3 kmh 29.79 in1008.8 mb - 0.00 in0.0 mm 0.00 in0.0 mm
02:50 AM 23.0°F-5.0°C 15.6°F-9.1°C 73% 3.5 mph WSW5.6 kmh WSW 2.3 mph3.7 kmh 29.79 in1008.8 mb - 0.00 in0.0 mm 0.00 in0.0 mm
03:00 AM 23.2°F-4.9°C 15.8°F-9.0°C 73% 4.6 mph NW7.4 kmh NW 5.8 mph9.3 kmh 29.79 in1008.8 mb - 0.00 in0.0 mm 0.00 in0.0 mm
03:10 AM 23.4°F-4.8°C 15.7°F-9.1°C 72% 4.6 mph WSW7.4 kmh WSW 11.5 mph18.5 kmh 29.80 in1009.1 mb - 0.00 in0.0 mm 0.00 in0.0 mm
03:20 AM 23.4°F-4.8°C 15.7°F-9.1°C 72% 3.5 mph W5.6 kmh W 5.8 mph9.3 kmh 29.80 in1009.1 mb - 0.00 in0.0 mm 0.00 in0.0 mm
03:30 AM 23.8°F-4.6°C 15.7°F-9.1°C 71% 9.2 mph WSW14.8 kmh WSW 11.5 mph18.5 kmh 29.80 in1009.1 mb - 0.00 in0.0 mm 0.00 in0.0 mm
03:40 AM 23.8°F-4.6°C 15.4°F-9.2°C 70% 4.6 mph NW7.4 kmh NW 11.5 mph18.5 kmh 29.81 in1009.5 mb - 0.00 in0.0 mm 0.00 in0.0 mm
03:50 AM 23.9°F-4.5°C 15.5°F-9.2°C 70% 10.4 mph WSW16.7 kmh WSW 19.6 mph31.5 kmh 29.81 in1009.5 mb - 0.00 in0.0 mm 0.00 in0.0 mm
04:00 AM 24.1°F-4.4°C 15.4°F-9.2°C 69% 6.9 mph NW11.1 kmh NW 8.1 mph13.0 kmh 29.82 in1009.8 mb - 0.00 in0.0 mm 0.00 in0.0 mm
04:10 AM 23.9°F-4.5°C 14.9°F-9.5°C 68% 5.8 mph WSW9.3 kmh WSW 9.2 mph14.8 kmh 29.82 in1009.8 mb - 0.00 in0.0 mm 0.00 in0.0 mm
04:20 AM 24.0°F-4.4°C 15.0°F-9.4°C 68% 4.6 mph WNW7.4 kmh WNW 16.1 mph25.9 kmh 29.83 in1010.2 mb - 0.00 in0.0 mm 0.00 in0.0 mm
04:30 AM 24.0°F-4.4°C 14.9°F-9.5°C 68% 4.6 mph SW7.4 kmh SW 5.8 mph9.3 kmh 29.83 in1010.2 mb - 0.00 in0.0 mm 0.00 in0.0 mm
04:40 AM 23.9°F-4.5°C 14.5°F-9.7°C 67% 8.1 mph W13.0 kmh W 10.4 mph16.7 kmh 29.83 in1010.2 mb - 0.00 in0.0 mm 0.00 in0.0 mm
04:50 AM 23.9°F-4.5°C 14.5°F-9.7°C 67% 6.9 mph W11.1 kmh W 13.8 mph22.2 kmh 29.83 in1010.2 mb - 0.00 in0.0 mm 0.00 in0.0 mm
05:00 AM 23.8°F-4.6°C 14.5°F-9.7°C 67% 6.9 mph WSW11.1 kmh WSW 13.8 mph22.2 kmh 29.83 in1010.2 mb - 0.00 in0.0 mm 0.00 in0.0 mm
05:10 AM 23.8°F-4.6°C 14.1°F-9.9°C 66% 5.8 mph WNW9.3 kmh WNW 6.9 mph11.1 kmh 29.83 in1010.2 mb - 0.00 in0.0 mm 0.00 in0.0 mm
05:20 AM 23.6°F-4.7°C 14.5°F-9.7°C 68% 6.9 mph WSW11.1 kmh WSW 16.1 mph25.9 kmh 29.83 in1010.2 mb - 0.00 in0.0 mm 0.00 in0.0 mm
05:30 AM 23.6°F-4.7°C 14.5°F-9.7°C 68% 3.5 mph NW5.6 kmh NW 5.8 mph9.3 kmh 29.84 in1010.5 mb - 0.00 in0.0 mm 0.00 in0.0 mm
05:40 AM 23.4°F-4.8°C 14.7°F-9.6°C 69% 5.8 mph WSW9.3 kmh WSW 8.1 mph13.0 kmh 29.85 in1010.8 mb - 0.00 in0.0 mm 0.00 in0.0 mm
05:50 AM 23.0°F-5.0°C 14.7°F-9.6°C 70% 3.5 mph WSW5.6 kmh WSW 5.8 mph9.3 kmh 29.85 in1010.8 mb - 0.00 in0.0 mm 0.00 in0.0 mm
06:00 AM 22.9°F-5.1°C 14.5°F-9.7°C 70% 4.6 mph WSW7.4 kmh WSW 5.8 mph9.3 kmh 29.85 in1010.8 mb - 0.00 in0.0 mm 0.00 in0.0 mm
06:10 AM 23.0°F-5.0°C 14.0°F-10.0°C 68% 9.2 mph WSW14.8 kmh WSW 8.1 mph13.0 kmh 29.85 in1010.8 mb - 0.00 in0.0 mm 0.00 in0.0 mm
06:20 AM 22.7°F-5.2°C 14.0°F-10.0°C 69% 6.9 mph W11.1 kmh W 8.1 mph13.0 kmh 29.85 in1010.8 mb - 0.00 in0.0 mm 0.00 in0.0 mm
06:30 AM 22.5°F-5.3°C 14.2°F-9.9°C 70% 5.8 mph WSW9.3 kmh WSW 5.8 mph9.3 kmh 29.87 in1011.5 mb - 0.00 in0.0 mm 0.00 in0.0 mm
06:40 AM 22.3°F-5.4°C 13.4°F-10.3°C 68% 10.4 mph W16.7 kmh W 19.6 mph31.5 kmh 29.86 in1011.2 mb - 0.00 in0.0 mm 0.00 in0.0 mm
06:50 AM 22.1°F-5.5°C 12.8°F-10.7°C 67% 11.5 mph WSW18.5 kmh WSW 25.3 mph40.7 kmh 29.87 in1011.5 mb - 0.00 in0.0 mm 0.00 in0.0 mm
07:00 AM 22.0°F-5.6°C 12.3°F-10.9°C 66% 5.8 mph SW9.3 kmh SW 8.1 mph13.0 kmh 29.87 in1011.5 mb - 0.00 in0.0 mm 0.00 in0.0 mm
07:10 AM 21.7°F-5.7°C 12.4°F-10.9°C 67% 4.6 mph W7.4 kmh W 8.1 mph13.0 kmh 29.88 in1011.9 mb - 0.00 in0.0 mm 0.00 in0.0 mm
07:20 AM 21.6°F-5.8°C 12.3°F-10.9°C 67% 10.4 mph WNW16.7 kmh WNW 10.4 mph16.7 kmh 29.88 in1011.9 mb - 0.00 in0.0 mm 0.00 in0.0 mm
07:30 AM 21.4°F-5.9°C 12.4°F-10.9°C 68% 4.6 mph W7.4 kmh W 8.1 mph13.0 kmh 29.90 in1012.5 mb - 0.00 in0.0 mm 0.00 in0.0 mm
07:40 AM 21.0°F-6.1°C 12.7°F-10.7°C 70% 2.3 mph S3.7 kmh S 3.5 mph5.6 kmh 29.90 in1012.5 mb - 0.00 in0.0 mm 0.00 in0.0 mm
07:50 AM 20.9°F-6.2°C 12.6°F-10.8°C 70% 3.5 mph W5.6 kmh W 9.2 mph14.8 kmh 29.91 in1012.9 mb - 0.00 in0.0 mm 0.00 in0.0 mm
08:00 AM 20.6°F-6.3°C 12.3°F-10.9°C 70% 10.4 mph WSW16.7 kmh WSW 11.5 mph18.5 kmh 29.91 in1012.9 mb - 0.00 in0.0 mm 0.00 in0.0 mm
08:10 AM 20.5°F-6.4°C 11.9°F-11.2°C 69% 6.9 mph WNW11.1 kmh WNW 9.2 mph14.8 kmh 29.92 in1013.2 mb - 0.00 in0.0 mm 0.00 in0.0 mm
08:20 AM 20.1°F-6.6°C 11.9°F-11.2°C 70% 10.4 mph WSW16.7 kmh WSW 17.3 mph27.8 kmh 29.92 in1013.2 mb - 0.00 in0.0 mm 0.00 in0.0 mm
08:30 AM 20.2°F-6.6°C 11.3°F-11.5°C 68% 10.4 mph W16.7 kmh W 9.2 mph14.8 kmh 29.93 in1013.5 mb - 0.00 in0.0 mm 0.00 in0.0 mm
08:40 AM 20.2°F-6.6°C 11.3°F-11.5°C 68% 3.5 mph WSW5.6 kmh WSW 8.1 mph13.0 kmh 29.94 in1013.9 mb - 0.00 in0.0 mm 0.00 in0.0 mm
08:50 AM 20.1°F-6.6°C 11.5°F-11.4°C 69% 3.5 mph NW5.6 kmh NW 5.8 mph9.3 kmh 29.95 in1014.2 mb - 0.00 in0.0 mm 0.00 in0.0 mm
09:00 AM 20.2°F-6.6°C 11.6°F-11.3°C 69% 2.3 mph WSW3.7 kmh WSW 2.3 mph3.7 kmh 29.96 in1014.6 mb - 0.00 in0.0 mm 0.00 in0.0 mm
09:10 AM 20.4°F-6.4°C 11.8°F-11.2°C 69% 6.9 mph W11.1 kmh W 9.2 mph14.8 kmh 29.96 in1014.6 mb - 0.00 in0.0 mm 0.00 in0.0 mm
09:20 AM 20.5°F-6.4°C 11.6°F-11.3°C 68% 8.1 mph W13.0 kmh W 11.5 mph18.5 kmh 29.97 in1014.9 mb - 0.00 in0.0 mm 0.00 in0.0 mm
09:30 AM 20.5°F-6.4°C 11.3°F-11.5°C 67% 3.5 mph W5.6 kmh W 5.8 mph9.3 kmh 29.97 in1014.9 mb - 0.00 in0.0 mm 0.00 in0.0 mm
09:40 AM 20.8°F-6.2°C 10.9°F-11.7°C 65% 3.5 mph NW5.6 kmh NW 2.3 mph3.7 kmh 29.98 in1015.2 mb - 0.00 in0.0 mm 0.00 in0.0 mm
09:50 AM 21.4°F-5.9°C 11.1°F-11.6°C 64% 4.6 mph NW7.4 kmh NW 8.1 mph13.0 kmh 29.99 in1015.6 mb - 0.00 in0.0 mm 0.00 in0.0 mm
10:00 AM 21.8°F-5.7°C 11.5°F-11.4°C 64% 2.3 mph WSW3.7 kmh WSW 2.3 mph3.7 kmh 29.98 in1015.2 mb - 0.00 in0.0 mm 0.00 in0.0 mm
10:10 AM 21.9°F-5.6°C 11.9°F-11.2°C 65% 5.8 mph SW9.3 kmh SW 11.5 mph18.5 kmh 29.99 in1015.6 mb - 0.00 in0.0 mm 0.00 in0.0 mm
10:20 AM 21.7°F-5.7°C 11.4°F-11.4°C 64% 5.8 mph WSW9.3 kmh WSW 9.2 mph14.8 kmh 29.99 in1015.6 mb - 0.00 in0.0 mm 0.00 in0.0 mm
10:30 AM 21.9°F-5.6°C 11.2°F-11.6°C 63% 4.6 mph W7.4 kmh W 11.5 mph18.5 kmh 30.00 in1015.9 mb - 0.00 in0.0 mm 0.00 in0.0 mm
10:40 AM 21.9°F-5.6°C 11.2°F-11.6°C 63% 4.6 mph SW7.4 kmh SW 5.8 mph9.3 kmh 30.00 in1015.9 mb - 0.00 in0.0 mm 0.00 in0.0 mm
10:50 AM 22.1°F-5.5°C 11.4°F-11.4°C 63% 6.9 mph WNW11.1 kmh WNW 13.8 mph22.2 kmh 30.00 in1015.9 mb - 0.00 in0.0 mm 0.00 in0.0 mm
11:00 AM 22.5°F-5.3°C 11.4°F-11.4°C 62% 8.1 mph WSW13.0 kmh WSW 10.4 mph16.7 kmh 30.00 in1015.9 mb - 0.00 in0.0 mm 0.00 in0.0 mm
11:10 AM 22.8°F-5.1°C 11.0°F-11.7°C 60% 8.1 mph WSW13.0 kmh WSW 16.1 mph25.9 kmh 30.01 in1016.3 mb - 0.00 in0.0 mm 0.00 in0.0 mm
11:20 AM 22.7°F-5.2°C 10.9°F-11.7°C 60% 8.1 mph W13.0 kmh W 13.8 mph22.2 kmh 30.01 in1016.3 mb - 0.00 in0.0 mm 0.00 in0.0 mm
11:30 AM 23.9°F-4.5°C 11.3°F-11.5°C 58% 5.8 mph NW9.3 kmh NW 6.9 mph11.1 kmh 30.02 in1016.6 mb - 0.00 in0.0 mm 0.00 in0.0 mm
11:40 AM 24.1°F-4.4°C 11.0°F-11.7°C 57% 6.9 mph W11.1 kmh W 9.2 mph14.8 kmh 30.02 in1016.6 mb - 0.00 in0.0 mm 0.00 in0.0 mm
11:50 AM 24.6°F-4.1°C 11.5°F-11.4°C 57% 9.2 mph W14.8 kmh W 19.6 mph31.5 kmh 30.02 in1016.6 mb - 0.00 in0.0 mm 0.00 in0.0 mm
12:00 PM 24.9°F-3.9°C 11.0°F-11.7°C 55% 5.8 mph WNW9.3 kmh WNW 13.8 mph22.2 kmh 30.02 in1016.6 mb - 0.00 in0.0 mm 0.00 in0.0 mm
12:10 PM 25.4°F-3.7°C 11.5°F-11.4°C 55% 8.1 mph W13.0 kmh W 8.1 mph13.0 kmh 30.02 in1016.6 mb - 0.00 in0.0 mm 0.00 in0.0 mm
12:20 PM 26.3°F-3.2°C 12.3°F-10.9°C 55% 6.9 mph W11.1 kmh W 9.2 mph14.8 kmh 30.02 in1016.6 mb - 0.00 in0.0 mm 0.00 in0.0 mm
12:30 PM 25.8°F-3.4°C 11.8°F-11.2°C 55% 9.2 mph WSW14.8 kmh WSW 11.5 mph18.5 kmh 30.02 in1016.6 mb - 0.00 in0.0 mm 0.00 in0.0 mm
12:40 PM 26.3°F-3.2°C 11.9°F-11.2°C 54% 4.6 mph NW7.4 kmh NW 8.1 mph13.0 kmh 30.02 in1016.6 mb - 0.00 in0.0 mm 0.00 in0.0 mm
12:50 PM 26.9°F-2.8°C 12.4°F-10.9°C 54% 3.5 mph S5.6 kmh S 2.3 mph3.7 kmh 30.01 in1016.3 mb - 0.00 in0.0 mm 0.00 in0.0 mm
01:00 PM 26.9°F-2.8°C 12.0°F-11.1°C 53% 3.5 mph WNW5.6 kmh WNW 5.8 mph9.3 kmh 30.01 in1016.3 mb - 0.00 in0.0 mm 0.00 in0.0 mm
01:10 PM 26.9°F-2.8°C 11.6°F-11.3°C 52% 9.2 mph WSW14.8 kmh WSW 15.0 mph24.1 kmh 30.01 in1016.3 mb - 0.00 in0.0 mm 0.00 in0.0 mm
01:20 PM 27.0°F-2.8°C 12.1°F-11.1°C 53% 8.1 mph W13.0 kmh W 13.8 mph22.2 kmh 30.01 in1016.3 mb - 0.00 in0.0 mm 0.00 in0.0 mm
01:30 PM 27.3°F-2.6°C 12.4°F-10.9°C 53% 8.1 mph NW13.0 kmh NW 16.1 mph25.9 kmh 30.01 in1016.3 mb - 0.00 in0.0 mm 0.00 in0.0 mm
01:40 PM 27.3°F-2.6°C 11.9°F-11.2°C 52% 9.2 mph WSW14.8 kmh WSW 19.6 mph31.5 kmh 30.01 in1016.3 mb - 0.00 in0.0 mm 0.00 in0.0 mm
01:50 PM 27.3°F-2.6°C 11.1°F-11.6°C 50% 5.8 mph N9.3 kmh N 9.2 mph14.8 kmh 30.01 in1016.3 mb - 0.00 in0.0 mm 0.00 in0.0 mm
02:00 PM 26.5°F-3.1°C 11.2°F-11.6°C 52% 3.5 mph WNW5.6 kmh WNW 9.2 mph14.8 kmh 30.02 in1016.6 mb - 0.00 in0.0 mm 0.00 in0.0 mm
02:10 PM 26.3°F-3.2°C 11.0°F-11.7°C 52% 6.9 mph W11.1 kmh W 10.4 mph16.7 kmh 30.03 in1016.9 mb - 0.00 in0.0 mm 0.00 in0.0 mm
02:20 PM 25.7°F-3.5°C 9.6°F-12.4°C 50% 9.2 mph WSW14.8 kmh WSW 19.6 mph31.5 kmh 30.04 in1017.3 mb - 0.00 in0.0 mm 0.00 in0.0 mm
02:30 PM 24.8°F-4.0°C 8.3°F-13.2°C 49% 8.1 mph WSW13.0 kmh WSW 11.5 mph18.5 kmh 30.04 in1017.3 mb - 0.00 in0.0 mm 0.00 in0.0 mm
02:40 PM 24.5°F-4.2°C 7.6°F-13.6°C 48% 8.1 mph W13.0 kmh W 19.6 mph31.5 kmh 30.04 in1017.3 mb - 0.00 in0.0 mm 0.00 in0.0 mm
02:50 PM 24.7°F-4.1°C 7.3°F-13.7°C 47% 8.1 mph W13.0 kmh W 13.8 mph22.2 kmh 30.04 in1017.3 mb - 0.00 in0.0 mm 0.00 in0.0 mm
03:00 PM 24.5°F-4.2°C 6.6°F-14.1°C 46% 5.8 mph W9.3 kmh W 6.9 mph11.1 kmh 30.05 in1017.6 mb - 0.00 in0.0 mm 0.00 in0.0 mm
03:10 PM 24.2°F-4.3°C 6.3°F-14.3°C 46% 8.1 mph WNW13.0 kmh WNW 13.8 mph22.2 kmh 30.05 in1017.6 mb - 0.00 in0.0 mm 0.00 in0.0 mm
03:20 PM 23.8°F-4.6°C 5.5°F-14.7°C 45% 9.2 mph W14.8 kmh W 13.8 mph22.2 kmh 30.06 in1017.9 mb - 0.00 in0.0 mm 0.00 in0.0 mm
03:30 PM 23.9°F-4.5°C 6.0°F-14.4°C 46% 4.6 mph W7.4 kmh W 3.5 mph5.6 kmh 30.06 in1017.9 mb - 0.00 in0.0 mm 0.00 in0.0 mm
03:40 PM 24.3°F-4.3°C 6.0°F-14.4°C 45% 4.6 mph W7.4 kmh W 10.4 mph16.7 kmh 30.07 in1018.3 mb - 0.00 in0.0 mm 0.00 in0.0 mm
03:50 PM 24.3°F-4.3°C 5.5°F-14.7°C 44% 8.1 mph W13.0 kmh W 9.2 mph14.8 kmh 30.07 in1018.3 mb - 0.00 in0.0 mm 0.00 in0.0 mm
04:00 PM 23.9°F-4.5°C 6.1°F-14.4°C 46% 6.9 mph W11.1 kmh W 10.4 mph16.7 kmh 30.08 in1018.6 mb - 0.00 in0.0 mm 0.00 in0.0 mm
04:10 PM 23.5°F-4.7°C 5.2°F-14.9°C 45% 4.6 mph WSW7.4 kmh WSW 5.8 mph9.3 kmh 30.08 in1018.6 mb - 0.00 in0.0 mm 0.00 in0.0 mm
04:20 PM 23.4°F-4.8°C 5.7°F-14.6°C 46% 4.6 mph W7.4 kmh W 2.3 mph3.7 kmh 30.08 in1018.6 mb - 0.00 in0.0 mm 0.00 in0.0 mm
04:30 PM 23.4°F-4.8°C 5.6°F-14.7°C 46% 2.3 mph WSW3.7 kmh WSW 6.9 mph11.1 kmh 30.08 in1018.6 mb - 0.00 in0.0 mm 0.00 in0.0 mm
04:40 PM 23.0°F-5.0°C 5.3°F-14.8°C 46% 8.1 mph W13.0 kmh W 8.1 mph13.0 kmh 30.08 in1018.6 mb - 0.00 in0.0 mm 0.00 in0.0 mm
04:50 PM 22.8°F-5.1°C 5.1°F-14.9°C 46% 3.5 mph NW5.6 kmh NW 5.8 mph9.3 kmh 30.09 in1019.0 mb - 0.00 in0.0 mm 0.00 in0.0 mm
05:00 PM 22.7°F-5.2°C 4.5°F-15.3°C 45% 8.1 mph W13.0 kmh W 9.2 mph14.8 kmh 30.09 in1019.0 mb - 0.00 in0.0 mm 0.00 in0.0 mm
05:10 PM 22.5°F-5.3°C 3.8°F-15.7°C 44% 3.5 mph NW5.6 kmh NW 5.8 mph9.3 kmh 30.09 in1019.0 mb - 0.00 in0.0 mm 0.00 in0.0 mm
05:20 PM 22.3°F-5.4°C 3.6°F-15.8°C 44% 3.5 mph W5.6 kmh W 8.1 mph13.0 kmh 30.09 in1019.0 mb - 0.00 in0.0 mm 0.00 in0.0 mm
05:30 PM 22.0°F-5.6°C 3.4°F-15.9°C 44% 5.8 mph SW9.3 kmh SW 9.2 mph14.8 kmh 30.10 in1019.3 mb - 0.00 in0.0 mm 0.00 in0.0 mm
05:40 PM 21.7°F-5.7°C 2.6°F-16.3°C 43% 4.6 mph W7.4 kmh W 6.9 mph11.1 kmh 30.10 in1019.3 mb - 0.00 in0.0 mm 0.00 in0.0 mm
05:50 PM 21.3°F-5.9°C 2.7°F-16.3°C 44% 4.6 mph NW7.4 kmh NW 3.5 mph5.6 kmh 30.12 in1020.0 mb - 0.00 in0.0 mm 0.00 in0.0 mm
06:00 PM 20.9°F-6.2°C 1.9°F-16.7°C 43% 8.1 mph WNW13.0 kmh WNW 11.5 mph18.5 kmh 30.12 in1020.0 mb - 0.00 in0.0 mm 0.00 in0.0 mm
06:10 PM 20.8°F-6.2°C 1.8°F-16.8°C 43% 6.9 mph W11.1 kmh W 10.4 mph16.7 kmh 30.12 in1020.0 mb - 0.00 in0.0 mm 0.00 in0.0 mm
06:20 PM 20.5°F-6.4°C 2.0°F-16.7°C 44% 3.5 mph WNW5.6 kmh WNW 9.2 mph14.8 kmh 30.13 in1020.3 mb - 0.00 in0.0 mm 0.00 in0.0 mm
06:30 PM 20.0°F-6.7°C 1.6°F-16.9°C 44% 6.9 mph WSW11.1 kmh WSW 8.1 mph13.0 kmh 30.14 in1020.7 mb - 0.00 in0.0 mm 0.00 in0.0 mm
06:40 PM 19.8°F-6.8°C 1.4°F-17.0°C 44% 3.5 mph WSW5.6 kmh WSW 2.3 mph3.7 kmh 30.14 in1020.7 mb - 0.00 in0.0 mm 0.00 in0.0 mm
06:50 PM 19.5°F-6.9°C 2.0°F-16.7°C 46% 5.8 mph WSW9.3 kmh WSW 8.1 mph13.0 kmh 30.15 in1021.0 mb - 0.00 in0.0 mm 0.00 in0.0 mm
07:00 PM 19.3°F-7.1°C 1.8°F-16.8°C 46% 4.6 mph NW7.4 kmh NW 8.1 mph13.0 kmh 30.15 in1021.0 mb - 0.00 in0.0 mm 0.00 in0.0 mm
07:10 PM 18.9°F-7.3°C 2.0°F-16.7°C 47% 3.5 mph W5.6 kmh W 8.1 mph13.0 kmh 30.16 in1021.3 mb - 0.00 in0.0 mm 0.00 in0.0 mm
07:20 PM 18.7°F-7.4°C 2.2°F-16.6°C 48% 3.5 mph N5.6 kmh N 5.8 mph9.3 kmh 30.16 in1021.3 mb - 0.00 in0.0 mm 0.00 in0.0 mm
07:30 PM 18.4°F-7.6°C 2.0°F-16.7°C 48% 6.9 mph WSW11.1 kmh WSW 11.5 mph18.5 kmh 30.17 in1021.7 mb - 0.00 in0.0 mm 0.00 in0.0 mm
07:40 PM 18.0°F-7.8°C 1.6°F-16.9°C 48% 6.9 mph WNW11.1 kmh WNW 8.1 mph13.0 kmh 30.17 in1021.7 mb - 0.00 in0.0 mm 0.00 in0.0 mm
07:50 PM 17.8°F-7.9°C 1.4°F-17.0°C 48% 11.5 mph W18.5 kmh W 10.4 mph16.7 kmh 30.17 in1021.7 mb - 0.00 in0.0 mm 0.00 in0.0 mm
08:00 PM 17.5°F-8.1°C 1.5°F-16.9°C 49% 10.4 mph WNW16.7 kmh WNW 10.4 mph16.7 kmh 30.17 in1021.7 mb - 0.00 in0.0 mm 0.00 in0.0 mm
08:10 PM 17.1°F-8.3°C 1.7°F-16.8°C 50% 5.8 mph NW9.3 kmh NW 9.2 mph14.8 kmh 30.17 in1021.7 mb - 0.00 in0.0 mm 0.00 in0.0 mm
08:20 PM 16.9°F-8.4°C 1.9°F-16.7°C 51% 4.6 mph WNW7.4 kmh WNW 5.8 mph9.3 kmh 30.18 in1022.0 mb - 0.00 in0.0 mm 0.00 in0.0 mm
08:30 PM 16.8°F-8.4°C 1.4°F-17.0°C 50% 4.6 mph W7.4 kmh W 5.8 mph9.3 kmh 30.18 in1022.0 mb - 0.00 in0.0 mm 0.00 in0.0 mm
08:40 PM 16.6°F-8.6°C 1.2°F-17.1°C 50% 5.8 mph WSW9.3 kmh WSW 6.9 mph11.1 kmh 30.18 in1022.0 mb - 0.00 in0.0 mm 0.00 in0.0 mm
08:50 PM 16.5°F-8.6°C 1.0°F-17.2°C 50% 6.9 mph W11.1 kmh W 11.5 mph18.5 kmh 30.19 in1022.4 mb - 0.00 in0.0 mm 0.00 in0.0 mm
09:00 PM 16.2°F-8.8°C 1.3°F-17.1°C 51% 4.6 mph NW7.4 kmh NW 5.8 mph9.3 kmh 30.20 in1022.7 mb - 0.00 in0.0 mm 0.00 in0.0 mm
09:10 PM 15.9°F-8.9°C 1.4°F-17.0°C 52% 5.8 mph NW9.3 kmh NW 8.1 mph13.0 kmh 30.21 in1023.0 mb - 0.00 in0.0 mm 0.00 in0.0 mm
09:20 PM 15.9°F-8.9°C 1.4°F-17.0°C 52% 4.6 mph W7.4 kmh W 6.9 mph11.1 kmh 30.21 in1023.0 mb - 0.00 in0.0 mm 0.00 in0.0 mm
09:30 PM 15.7°F-9.1°C 1.2°F-17.1°C 52% 1.2 mph NW1.9 kmh NW 2.3 mph3.7 kmh 30.22 in1023.4 mb - 0.00 in0.0 mm 0.00 in0.0 mm
09:40 PM 15.6°F-9.1°C 1.1°F-17.2°C 52% 6.9 mph WSW11.1 kmh WSW 11.5 mph18.5 kmh 30.22 in1023.4 mb - 0.00 in0.0 mm 0.00 in0.0 mm
09:50 PM 15.4°F-9.2°C 0.9°F-17.3°C 52% 2.3 mph N3.7 kmh N 2.3 mph3.7 kmh 30.23 in1023.7 mb - 0.00 in0.0 mm 0.00 in0.0 mm
10:00 PM 15.3°F-9.3°C 0.4°F-17.6°C 51% 6.9 mph NW11.1 kmh NW 9.2 mph14.8 kmh 30.24 in1024.0 mb - 0.00 in0.0 mm 0.00 in0.0 mm
10:10 PM 15.3°F-9.3°C 0.4°F-17.6°C 51% 2.3 mph WSW3.7 kmh WSW 2.3 mph3.7 kmh 30.24 in1024.0 mb - 0.00 in0.0 mm 0.00 in0.0 mm
10:20 PM 15.4°F-9.2°C -0.4°F-18.0°C 49% 4.6 mph WSW7.4 kmh WSW 11.5 mph18.5 kmh 30.24 in1024.0 mb - 0.00 in0.0 mm 0.00 in0.0 mm
10:30 PM 15.2°F-9.3°C 0.3°F-17.6°C 51% 5.8 mph W9.3 kmh W 9.2 mph14.8 kmh 30.25 in1024.4 mb - 0.00 in0.0 mm 0.00 in0.0 mm
10:40 PM 15.0°F-9.4°C 0.9°F-17.3°C 53% 4.6 mph WNW7.4 kmh WNW 6.9 mph11.1 kmh 30.25 in1024.4 mb - 0.00 in0.0 mm 0.00 in0.0 mm
10:50 PM 14.8°F-9.6°C 0.4°F-17.6°C 52% 3.5 mph W5.6 kmh W 5.8 mph9.3 kmh 30.26 in1024.7 mb - 0.00 in0.0 mm 0.00 in0.0 mm
11:00 PM 14.7°F-9.6°C 1.1°F-17.2°C 54% 2.3 mph WSW3.7 kmh WSW 8.1 mph13.0 kmh 30.26 in1024.7 mb - 0.00 in0.0 mm 0.00 in0.0 mm
11:10 PM 14.7°F-9.6°C 0.3°F-17.6°C 52% 3.5 mph WSW5.6 kmh WSW 3.5 mph5.6 kmh 30.27 in1025.1 mb - 0.00 in0.0 mm 0.00 in0.0 mm
11:20 PM 14.6°F-9.7°C 0.6°F-17.4°C 53% 3.5 mph W5.6 kmh W 5.8 mph9.3 kmh 30.27 in1025.1 mb - 0.00 in0.0 mm 0.00 in0.0 mm
11:30 PM 14.3°F-9.8°C 0.7°F-17.4°C 54% 2.3 mph W3.7 kmh W 2.3 mph3.7 kmh 30.27 in1025.1 mb - 0.00 in0.0 mm 0.00 in0.0 mm
11:40 PM 14.2°F-9.9°C 0.6°F-17.4°C 54% 3.5 mph W5.6 kmh W 8.1 mph13.0 kmh 30.27 in1025.1 mb - 0.00 in0.0 mm 0.00 in0.0 mm
11:50 PM 14.3°F-9.8°C 1.0°F-17.2°C 55% 4.6 mph NNW7.4 kmh NNW 5.8 mph9.3 kmh 30.28 in1025.4 mb - 0.00 in0.0 mm 0.00 in0.0 mm